Time;durP1;ratioP1;P1;durP2;ratioP2;P2;SDS_P1;SDS_P2;PMS_P1;PMS_P2;Temp;Humidity;BMP_temperature;BMP_pressure;BME280_temperature;BME280_humidity;BME280_pressure;Samples;Min_cycle;Max_cycle;Signal;HPM_P1;HPM_P2
2023/05/04 00:01:10;;;;;;;11.18;7.05;;;5.90;99.90;;;;;;4941952;28;20054;-82
2023/05/04 00:03:36;;;;;;;12.13;7.07;;;5.90;99.90;;;;;;4957991;28;20090;-83
2023/05/04 00:06:02;;;;;;;12.43;7.50;;;5.80;99.90;;;;;;4957769;28;20066;-83
2023/05/04 00:08:29;;;;;;;12.45;6.95;;;5.80;99.90;;;;;;4957715;28;20051;-82
2023/05/04 00:10:55;;;;;;;14.00;7.05;;;5.80;99.90;;;;;;4941644;28;20138;-83
2023/05/04 00:13:21;;;;;;;11.27;6.97;;;5.80;99.90;;;;;;4973728;28;20419;-82
2023/05/04 00:15:47;;;;;;;13.00;7.50;;;5.80;99.90;;;;;;4957895;28;20042;-82
2023/05/04 00:18:13;;;;;;;14.25;7.90;;;5.70;99.90;;;;;;4941917;28;20397;-83
2023/05/04 00:20:38;;;;;;;14.07;7.63;;;5.80;99.90;;;;;;4957637;28;20053;-83
2023/05/04 00:23:04;;;;;;;13.98;7.90;;;5.70;99.90;;;;;;4957123;28;20042;-83
2023/05/04 00:25:30;;;;;;;13.82;7.68;;;5.80;99.90;;;;;;4957632;28;20043;-83
2023/05/04 00:27:56;;;;;;;13.68;7.65;;;5.80;99.90;;;;;;4941269;28;20051;-83
2023/05/04 00:30:22;;;;;;;15.07;7.55;;;5.70;99.90;;;;;;4941707;28;20045;-81
2023/05/04 00:32:47;;;;;;;15.20;7.90;;;5.70;99.90;;;;;;4957633;28;20050;-83
2023/05/04 00:35:13;;;;;;;13.70;8.00;;;5.80;99.90;;;;;;4957685;28;20043;-83
2023/05/04 00:37:39;;;;;;;13.25;7.53;;;5.70;99.90;;;;;;4957505;28;20443;-81
2023/05/04 00:40:05;;;;;;;13.43;7.65;;;5.70;99.90;;;;;;4957240;28;20384;-83
2023/05/04 00:42:31;;;;;;;10.55;7.35;;;5.70;99.90;;;;;;4957273;28;20487;-82
2023/05/04 00:44:56;;;;;;;13.38;7.70;;;5.70;99.90;;;;;;4957060;28;20098;-82
2023/05/04 00:47:23;;;;;;;11.57;6.80;;;5.70;99.90;;;;;;4941638;28;20109;-83
2023/05/04 00:49:50;;;;;;;14.45;7.78;;;5.70;99.90;;;;;;4957512;28;20050;-83
2023/05/04 00:52:17;;;;;;;14.40;8.00;;;5.70;99.90;;;;;;4956927;28;20499;-83
2023/05/04 00:54:45;;;;;;;16.08;8.10;;;5.60;99.90;;;;;;4926014;28;20097;-83
2023/05/04 00:57:12;;;;;;;15.82;8.07;;;5.60;99.90;;;;;;4941090;28;20388;-83
2023/05/04 00:59:38;;;;;;;16.00;8.68;;;5.60;99.90;;;;;;4957239;28;20191;-83
2023/05/04 01:02:04;;;;;;;12.63;8.00;;;5.60;99.90;;;;;;4956825;28;20051;-83
2023/05/04 01:04:30;;;;;;;13.57;8.10;;;5.60;99.90;;;;;;4973665;28;20058;-83
2023/05/04 01:07:12;;;;;;;15.65;8.45;;;5.60;99.90;;;;;;4957257;28;20047;-83
2023/05/04 01:09:47;;;;;;;;;;;5.60;99.90;;;;;;4941964;28;20047;-83
2023/05/04 01:12:34;;;;;;;15.27;7.88;;;5.60;99.90;;;;;;4956671;28;19922;-83
2023/05/04 01:15:01;;;;;;;12.07;8.00;;;5.60;99.90;;;;;;4957719;28;20505;-83
2023/05/04 01:17:27;;;;;;;14.02;8.20;;;5.50;99.90;;;;;;4961147;28;20065;-83
2023/05/04 01:19:53;;;;;;;12.65;8.25;;;5.50;99.90;;;;;;4960753;28;20044;-83
2023/05/04 01:22:19;;;;;;;14.95;8.85;;;5.50;99.90;;;;;;4945087;28;20050;-83
2023/05/04 01:24:45;;;;;;;14.43;8.75;;;5.50;99.90;;;;;;4944714;28;20487;-83
2023/05/04 01:27:22;;;;;;;15.32;8.77;;;5.50;99.90;;;;;;4944918;28;20057;-83
2023/05/04 01:30:00;;;;;;;14.90;8.98;;;5.40;99.90;;;;;;4944913;28;20122;-83
2023/05/04 01:32:28;;;;;;;14.43;8.23;;;5.40;99.90;;;;;;4960566;28;20054;-83
2023/05/04 01:34:55;;;;;;;15.98;8.35;;;5.40;99.90;;;;;;4960537;28;20109;-83
2023/05/04 01:37:21;;;;;;;15.10;8.77;;;5.40;99.90;;;;;;4960831;28;20406;-83
2023/05/04 01:39:46;;;;;;;14.35;8.27;;;5.40;99.90;;;;;;4960394;28;20049;-82
2023/05/04 01:42:12;;;;;;;15.73;8.38;;;5.30;99.90;;;;;;4960453;28;20190;-82
2023/05/04 01:44:39;;;;;;;16.35;8.82;;;5.40;99.90;;;;;;4944644;28;20053;-83
2023/05/04 01:47:05;;;;;;;16.42;9.18;;;5.40;99.90;;;;;;4976380;28;20077;-83
2023/05/04 01:49:34;;;;;;;17.83;8.48;;;5.40;99.90;;;;;;4944251;28;20554;-83
2023/05/04 01:51:59;;;;;;;15.90;8.90;;;5.30;99.90;;;;;;4944386;28;20145;-83
2023/05/04 01:54:25;;;;;;;14.25;8.75;;;5.40;99.90;;;;;;4960415;28;20082;-82
2023/05/04 01:56:51;;;;;;;16.48;8.95;;;5.30;99.90;;;;;;4960224;28;20051;-83
2023/05/04 01:59:17;;;;;;;14.68;8.70;;;5.40;99.90;;;;;;4960101;28;20098;-83
2023/05/04 02:01:43;;;;;;;15.57;9.07;;;5.40;99.90;;;;;;4960229;28;20045;-83
2023/05/04 02:04:08;;;;;;;17.55;9.27;;;5.40;99.90;;;;;;4912781;28;20046;-83
2023/05/04 02:06:34;;;;;;;16.55;9.18;;;5.30;99.90;;;;;;4960134;28;20133;-83
2023/05/04 02:09:00;;;;;;;16.77;9.27;;;5.30;99.90;;;;;;4975784;28;20450;-83
2023/05/04 02:11:26;;;;;;;18.10;9.52;;;5.30;99.90;;;;;;4943783;28;20105;-84
2023/05/04 02:13:52;;;;;;;16.23;8.95;;;5.30;99.90;;;;;;4959792;28;20154;-83
2023/05/04 02:16:17;;;;;;;16.35;8.98;;;5.30;99.90;;;;;;4959995;28;20042;-84
2023/05/04 02:18:43;;;;;;;15.70;9.50;;;5.30;99.90;;;;;;4959801;28;20042;-84
2023/05/04 02:21:09;;;;;;;17.40;9.80;;;5.30;99.90;;;;;;4944056;28;20054;-83
2023/05/04 02:23:35;;;;;;;16.10;9.65;;;5.30;99.90;;;;;;4943453;28;20046;-83
2023/05/04 02:26:01;;;;;;;16.98;10.52;;;5.30;99.90;;;;;;4959567;28;20495;-83
2023/05/04 02:28:27;;;;;;;17.17;10.07;;;5.30;99.90;;;;;;4958872;28;20058;-82
2023/05/04 02:30:52;;;;;;;16.33;10.18;;;5.30;99.90;;;;;;4959416;28;20055;-84
2023/05/04 02:33:18;;;;;;;18.30;10.77;;;5.20;99.90;;;;;;4959751;28;20499;-83
2023/05/04 02:35:44;;;;;;;16.85;10.38;;;5.20;99.90;;;;;;4959424;28;20133;-83
2023/05/04 02:38:09;;;;;;;18.00;10.02;;;5.30;99.90;;;;;;4958971;28;20422;-83
2023/05/04 02:40:35;;;;;;;17.70;9.20;;;5.20;99.90;;;;;;4959504;28;20057;-83
2023/05/04 02:43:01;;;;;;;18.65;9.88;;;5.20;99.90;;;;;;4959462;28;20105;-83
2023/05/04 02:45:27;;;;;;;17.67;10.13;;;5.30;99.90;;;;;;4927827;28;20054;-82
2023/05/04 02:47:52;;;;;;;14.90;8.90;;;5.30;99.90;;;;;;4943476;28;20058;-82
2023/05/04 02:50:18;;;;;;;17.73;10.20;;;5.30;99.90;;;;;;4958920;28;20422;-82
2023/05/04 02:52:44;;;;;;;17.67;10.30;;;5.30;99.90;;;;;;4959339;28;20139;-83
2023/05/04 02:55:10;;;;;;;17.55;10.48;;;5.30;99.90;;;;;;4959326;28;20105;-83
2023/05/04 02:57:35;;;;;;;16.77;10.18;;;5.30;99.90;;;;;;4943442;28;20401;-83
2023/05/04 03:00:01;;;;;;;16.77;9.98;;;5.30;99.90;;;;;;4958970;28;20070;-82
2023/05/04 03:02:29;;;;;;;19.58;10.57;;;5.40;99.90;;;;;;4943535;28;20046;-82
2023/05/04 03:04:55;;;;;;;17.65;10.63;;;5.30;99.90;;;;;;4927370;28;20392;-83
2023/05/04 03:07:21;;;;;;;17.85;10.68;;;5.30;99.90;;;;;;4958707;28;20180;-83
2023/05/04 03:09:49;;;;;;;15.25;10.55;;;5.30;99.90;;;;;;4927122;28;20049;-83
2023/05/04 03:12:15;;;;;;;15.68;9.70;;;5.30;99.90;;;;;;4958715;28;20054;-82
2023/05/04 03:14:41;;;;;;;18.05;10.60;;;5.30;99.90;;;;;;4942991;28;20063;-82
2023/05/04 03:17:07;;;;;;;17.52;10.85;;;5.30;99.90;;;;;;4958642;28;20089;-82
2023/05/04 03:19:32;;;;;;;17.80;10.52;;;5.20;99.90;;;;;;4942858;28;20043;-83
2023/05/04 03:21:58;;;;;;;16.58;11.05;;;5.20;99.90;;;;;;4958781;28;20047;-82
2023/05/04 03:24:24;;;;;;;17.23;10.50;;;5.40;99.90;;;;;;4942813;28;20510;-83
2023/05/04 03:26:50;;;;;;;19.83;10.75;;;5.30;99.90;;;;;;4942486;28;20055;-83
2023/05/04 03:29:15;;;;;;;19.23;11.07;;;5.30;99.90;;;;;;4958696;28;20050;-82
2023/05/04 03:31:41;;;;;;;15.55;9.82;;;5.20;99.90;;;;;;4958324;28;20046;-82
2023/05/04 03:34:08;;;;;;;17.60;10.55;;;5.20;99.90;;;;;;4942706;28;20047;-83
2023/05/04 03:36:34;;;;;;;18.88;11.40;;;5.20;99.90;;;;;;4958464;28;20053;-82
2023/05/04 03:39:00;;;;;;;20.42;11.68;;;5.20;99.90;;;;;;4957866;28;20050;-83
2023/05/04 03:41:26;;;;;;;18.83;10.75;;;5.20;99.90;;;;;;4942588;28;20050;-83
2023/05/04 03:43:51;;;;;;;17.55;10.82;;;5.10;99.90;;;;;;4958018;28;20453;-83
2023/05/04 03:46:17;;;;;;;15.95;10.20;;;5.10;99.90;;;;;;4958535;28;20086;-83
2023/05/04 03:48:43;;;;;;;18.13;10.63;;;5.20;99.90;;;;;;4958270;28;20166;-83
2023/05/04 03:51:08;;;;;;;16.25;10.57;;;5.20;99.90;;;;;;4958336;28;20387;-82
2023/05/04 03:53:34;;;;;;;19.95;11.50;;;5.20;99.90;;;;;;4958393;28;20090;-82
2023/05/04 03:56:01;;;;;;;20.17;11.23;;;5.10;99.90;;;;;;4957657;28;20073;-83
2023/05/04 03:58:27;;;;;;;17.67;10.82;;;5.20;99.90;;;;;;4958108;28;20479;-82
2023/05/04 04:00:53;;;;;;;18.63;10.65;;;5.20;99.90;;;;;;4958157;28;20055;-82
2023/05/04 04:03:18;;;;;;;17.90;10.85;;;5.20;99.90;;;;;;4957744;28;20125;-82
2023/05/04 04:05:44;;;;;;;17.48;11.13;;;5.20;99.90;;;;;;4958102;28;20392;-83
2023/05/04 04:08:10;;;;;;;17.75;10.07;;;5.20;99.90;;;;;;4958128;28;20055;-83
2023/05/04 04:10:36;;;;;;;18.25;10.65;;;5.30;99.90;;;;;;4973636;28;20079;-82
2023/05/04 04:13:02;;;;;;;17.77;10.82;;;5.20;99.90;;;;;;4957673;28;20058;-82
2023/05/04 04:15:28;;;;;;;19.35;11.32;;;5.40;99.90;;;;;;4957875;28;20050;-83
2023/05/04 04:17:53;;;;;;;23.50;11.68;;;5.60;99.90;;;;;;4957180;28;20058;-82
2023/05/04 04:20:19;;;;;;;21.15;11.70;;;5.20;99.90;;;;;;4957624;28;20109;-83
2023/05/04 04:22:45;;;;;;;16.77;10.48;;;5.30;99.90;;;;;;4957611;28;20043;-83
2023/05/04 04:25:11;;;;;;;18.02;9.60;;;5.30;99.90;;;;;;4957699;28;20101;-83
2023/05/04 04:27:36;;;;;;;18.50;10.60;;;5.30;99.90;;;;;;4941884;28;20051;-82
2023/05/04 04:30:06;;;;;;;21.02;11.30;;;5.30;99.90;;;;;;4957701;28;20046;-82
2023/05/04 04:32:32;;;;;;;19.85;10.93;;;5.30;99.90;;;;;;4957712;28;20043;-82
2023/05/04 04:34:59;;;;;;;20.15;10.57;;;5.30;99.90;;;;;;4957625;28;20057;-83
2023/05/04 04:37:25;;;;;;;17.55;10.45;;;5.40;99.90;;;;;;4941172;28;20039;-84
2023/05/04 04:39:50;;;;;;;18.73;11.07;;;5.40;99.90;;;;;;4973370;28;20050;-83
2023/05/04 04:42:16;;;;;;;17.60;11.45;;;5.40;99.90;;;;;;4973524;28;20075;-83
2023/05/04 04:44:43;;;;;;;17.45;10.13;;;5.40;99.90;;;;;;4957711;28;20050;-84
2023/05/04 04:47:09;;;;;;;17.40;10.73;;;5.40;99.90;;;;;;4941350;28;20054;-84
2023/05/04 04:49:34;;;;;;;18.92;11.23;;;5.40;99.90;;;;;;4941686;28;20372;-83
2023/05/04 04:52:01;;;;;;;17.58;10.68;;;5.40;99.90;;;;;;4961097;28;20116;-83
2023/05/04 04:54:27;;;;;;;18.70;10.57;;;5.50;99.90;;;;;;4945355;28;20047;-83
2023/05/04 04:56:53;;;;;;;19.73;11.35;;;5.50;99.90;;;;;;4961508;28;20061;-83
2023/05/04 04:59:23;;;;;;;14.80;10.48;;;5.50;99.90;;;;;;4961279;28;20046;-83
2023/05/04 05:01:49;;;;;;;17.77;10.70;;;5.50;99.90;;;;;;4961408;28;20058;-83
2023/05/04 05:04:14;;;;;;;18.55;10.70;;;5.60;99.90;;;;;;4945039;28;20051;-83
2023/05/04 05:06:40;;;;;;;16.80;10.68;;;5.60;99.90;;;;;;4961173;28;20510;-83
2023/05/04 05:09:08;;;;;;;17.25;11.20;;;5.70;99.90;;;;;;4945267;28;20082;-83
2023/05/04 05:11:37;;;;;;;19.98;11.85;;;5.70;99.90;;;;;;4960912;28;20066;-83
2023/05/04 05:14:02;;;;;;;18.88;11.32;;;5.70;99.90;;;;;;4945202;28;20059;-83
2023/05/04 05:16:28;;;;;;;17.92;11.48;;;5.80;99.90;;;;;;4929189;28;20053;-83
2023/05/04 05:18:54;;;;;;;18.65;10.90;;;5.80;99.90;;;;;;4945017;28;20053;-83
2023/05/04 05:21:20;;;;;;;17.83;10.63;;;5.80;99.90;;;;;;4976635;28;20480;-83
2023/05/04 05:23:45;;;;;;;17.63;11.20;;;5.90;99.90;;;;;;4944798;28;20051;-83
2023/05/04 05:26:11;;;;;;;16.75;10.93;;;6.00;99.90;;;;;;4944789;28;20108;-83
2023/05/04 05:28:37;;;;;;;16.70;11.25;;;6.00;99.90;;;;;;4944869;28;20086;-83
2023/05/04 05:31:03;;;;;;;18.50;11.40;;;6.10;99.90;;;;;;4944686;28;20050;-83
2023/05/04 05:33:29;;;;;;;16.67;10.52;;;6.20;99.90;;;;;;4929223;28;20057;-82
2023/05/04 05:35:55;;;;;;;18.13;10.43;;;6.30;99.90;;;;;;4944778;28;20043;-83
2023/05/04 05:38:21;;;;;;;18.23;10.70;;;6.40;99.90;;;;;;4960627;28;20076;-83
2023/05/04 05:40:48;;;;;;;17.02;10.95;;;6.70;99.90;;;;;;4960690;28;20475;-84
2023/05/04 05:43:13;;;;;;;18.13;10.55;;;6.70;99.90;;;;;;4960826;28;20073;-83
2023/05/04 05:45:39;;;;;;;17.40;10.27;;;6.90;99.90;;;;;;4960604;28;20479;-85
2023/05/04 05:48:05;;;;;;;17.13;10.35;;;7.00;99.90;;;;;;4960430;28;20047;-84
2023/05/04 05:50:31;;;;;;;17.13;10.93;;;7.20;99.90;;;;;;4944140;28;20066;-83
2023/05/04 05:52:56;;;;;;;17.23;10.20;;;7.20;99.90;;;;;;4943907;28;20061;-84
2023/05/04 05:55:22;;;;;;;17.55;10.75;;;7.40;99.90;;;;;;4944449;28;20051;-84
2023/05/04 05:57:48;;;;;;;17.23;10.05;;;7.60;99.90;;;;;;4944463;28;20484;-84
2023/05/04 06:00:14;;;;;;;17.55;9.43;;;7.50;99.90;;;;;;4912576;28;20098;-83
2023/05/04 06:02:43;;;;;;;15.23;10.35;;;7.60;99.90;;;;;;4960024;28;20056;-84
2023/05/04 06:05:09;;;;;;;17.70;10.63;;;7.70;99.90;;;;;;4944118;28;20129;-84
2023/05/04 06:07:35;;;;;;;19.13;10.38;;;7.70;99.90;;;;;;4944049;28;20062;-85
2023/05/04 06:10:01;;;;;;;17.73;10.80;;;7.80;99.90;;;;;;4960218;28;20050;-83
2023/05/04 06:12:27;;;;;;;16.70;10.70;;;7.80;99.90;;;;;;4943453;28;20062;-84
2023/05/04 06:14:53;;;;;;;17.27;9.60;;;7.70;99.90;;;;;;4959560;28;20055;-85
2023/05/04 06:17:20;;;;;;;17.40;10.20;;;7.80;99.90;;;;;;4944191;28;20046;-85
2023/05/04 06:19:46;;;;;;;16.10;10.25;;;7.90;99.90;;;;;;4943520;28;20125;-85
2023/05/04 06:22:13;;;;;;;16.80;10.43;;;8.20;99.90;;;;;;4959933;28;20046;-85
2023/05/04 06:24:39;;;;;;;13.85;9.57;;;8.20;99.90;;;;;;4960027;28;20058;-85
2023/05/04 06:27:04;;;;;;;15.27;9.80;;;8.30;99.90;;;;;;4959602;28;20387;-84
2023/05/04 06:29:33;;;;;;;15.63;9.57;;;8.60;99.90;;;;;;4943453;28;20050;-83
2023/05/04 06:31:59;;;;;;;15.88;9.50;;;9.10;99.90;;;;;;4928280;28;20046;-86
2023/05/04 06:34:25;;;;;;;15.02;9.63;;;9.40;99.90;;;;;;4943945;28;20073;-85
2023/05/04 06:36:50;;;;;;;16.55;10.02;;;9.30;99.90;;;;;;4959690;28;20561;-86
2023/05/04 06:39:16;;;;;;;13.93;8.38;;;9.40;99.90;;;;;;4959520;28;20047;-85
2023/05/04 06:41:42;;;;;;;14.85;9.00;;;9.60;99.90;;;;;;4959265;28;20082;-85
2023/05/04 06:44:08;;;;;;;13.88;9.00;;;9.80;99.90;;;;;;4943401;28;20043;-84
2023/05/04 06:46:36;;;;;;;15.00;9.25;;;9.80;99.90;;;;;;4943313;28;20047;-86
2023/05/04 06:49:03;;;;;;;15.88;9.38;;;10.00;99.90;;;;;;4959421;28;20059;-85
2023/05/04 06:51:29;;;;;;;16.38;9.60;;;9.80;99.90;;;;;;4943778;28;20110;-85
2023/05/04 06:53:55;;;;;;;13.98;8.77;;;9.70;99.90;;;;;;4959433;28;20051;-86
2023/05/04 06:56:22;;;;;;;12.75;8.18;;;9.90;99.90;;;;;;4959543;28;20113;-86
2023/05/04 06:58:49;;;;;;;15.30;9.13;;;9.90;99.90;;;;;;4943415;28;20138;-87
2023/05/04 07:01:15;;;;;;;13.82;8.73;;;10.10;99.90;;;;;;4927545;28;20042;-86
2023/05/04 07:03:44;;;;;;;16.38;9.18;;;10.40;99.90;;;;;;4958920;28;20046;-86
2023/05/04 07:06:10;;;;;;;12.48;8.00;;;10.70;99.90;;;;;;4959774;28;20043;-86
2023/05/04 07:08:36;;;;;;;17.63;9.75;;;10.60;99.90;;;;;;4959941;28;20387;-86
2023/05/04 07:11:04;;;;;;;15.15;9.57;;;10.40;99.90;;;;;;4960137;28;20403;-85
2023/05/04 07:13:31;;;;;;;15.13;10.25;;;10.60;99.90;;;;;;4958260;28;20070;-85
2023/05/04 07:15:57;;;;;;;16.45;9.88;;;10.50;99.90;;;;;;4926998;28;20587;-86
2023/05/04 07:18:22;;;;;;;15.82;9.50;;;10.40;99.90;;;;;;4958862;28;20043;-86
2023/05/04 07:20:48;;;;;;;15.18;10.13;;;10.50;99.90;;;;;;4942945;28;20093;-86
2023/05/04 07:23:14;;;;;;;19.55;10.63;;;10.70;99.90;;;;;;4943225;28;20086;-86
2023/05/04 07:25:40;;;;;;;13.63;9.27;;;10.80;99.90;;;;;;4927485;28;20074;-85
2023/05/04 07:28:05;;;;;;;13.77;9.05;;;10.90;99.90;;;;;;4958813;28;20058;-86
2023/05/04 07:30:31;;;;;;;17.45;9.88;;;11.30;99.90;;;;;;4943225;28;20051;-86
2023/05/04 07:32:57;;;;;;;14.23;8.70;;;11.30;99.90;;;;;;4958496;28;20039;-86
2023/05/04 07:35:23;;;;;;;20.25;12.32;;;11.70;99.90;;;;;;4958718;28;20479;-85
2023/05/04 07:37:49;;;;;;;16.08;10.38;;;11.70;99.90;;;;;;4958841;28;20054;-86
2023/05/04 07:40:15;;;;;;;13.75;8.40;;;11.90;99.90;;;;;;4942440;28;20047;-86
2023/05/04 07:42:41;;;;;;;15.00;8.05;;;12.10;99.90;;;;;;4959668;28;20054;-85
2023/05/04 07:45:08;;;;;;;14.43;7.72;;;12.30;99.90;;;;;;4958693;28;20064;-87
2023/05/04 07:47:34;;;;;;;11.35;7.10;;;12.50;99.90;;;;;;4958940;28;20106;-86
2023/05/04 07:50:00;;;;;;;12.63;8.15;;;12.40;99.90;;;;;;4958866;28;20133;-87
2023/05/04 07:52:26;;;;;;;12.73;7.95;;;12.50;99.90;;;;;;4974576;28;20138;-87
2023/05/04 07:54:53;;;;;;;12.07;7.38;;;12.60;99.90;;;;;;4958803;28;20503;-87
2023/05/04 07:57:19;;;;;;;12.27;7.20;;;12.70;99.90;;;;;;4901391;29;20079;-88
2023/05/04 07:59:45;;;;;;;12.85;7.60;;;12.80;99.90;;;;;;4943284;28;20051;-86
2023/05/04 08:02:11;;;;;;;13.13;7.15;;;12.80;99.90;;;;;;4942554;28;20101;-87
2023/05/04 08:04:37;;;;;;;12.13;6.57;;;13.10;99.90;;;;;;4957924;28;20078;-87
2023/05/04 08:07:03;;;;;;;12.52;6.63;;;13.30;99.40;;;;;;4957855;28;20085;-87
2023/05/04 08:09:28;;;;;;;12.07;6.78;;;13.30;99.60;;;;;;4958531;28;20063;-87
2023/05/04 08:11:54;;;;;;;12.20;7.05;;;13.40;99.20;;;;;;4958368;28;20054;-86
2023/05/04 08:14:20;;;;;;;10.93;6.63;;;13.60;99.90;;;;;;4959361;28;20042;-86
2023/05/04 08:16:46;;;;;;;11.75;6.53;;;13.80;98.20;;;;;;4961999;28;20053;-87
2023/05/04 08:19:12;;;;;;;10.20;6.60;;;14.00;98.70;;;;;;4963773;28;20043;-87
2023/05/04 08:21:39;;;;;;;12.70;6.30;;;14.30;98.60;;;;;;4943707;28;20094;-88
2023/05/04 08:24:05;;;;;;;11.43;6.10;;;14.30;95.50;;;;;;4958046;28;20163;-87
2023/05/04 08:26:31;;;;;;;10.88;6.25;;;14.20;93.80;;;;;;4958400;28;20054;-88
2023/05/04 08:29:06;;;;;;;12.77;6.63;;;14.00;93.90;;;;;;4943063;28;20133;-86
2023/05/04 08:31:32;;;;;;;13.07;6.45;;;14.00;95.30;;;;;;4931406;28;20050;-87
2023/05/04 08:33:58;;;;;;;12.95;6.50;;;14.20;95.80;;;;;;4928103;28;20461;-87
2023/05/04 08:36:26;;;;;;;10.68;6.07;;;14.30;95.40;;;;;;4975412;28;20046;-86
2023/05/04 08:38:52;;;;;;;11.40;5.90;;;14.50;95.10;;;;;;4958561;28;20487;-87
2023/05/04 08:41:18;;;;;;;10.98;6.07;;;14.50;94.20;;;;;;4957573;28;20050;-88
2023/05/04 08:43:45;;;;;;;10.55;6.20;;;14.40;93.60;;;;;;4957817;28;20046;-87
2023/05/04 08:46:13;;;;;;;10.50;6.28;;;14.50;93.50;;;;;;4960218;28;20114;-87
2023/05/04 08:48:45;;;;;;;11.88;5.32;;;14.70;95.00;;;;;;4945484;28;20043;-88
2023/05/04 08:51:11;;;;;;;;;;;15.00;92.40;;;;;;4976384;28;20051;-87
2023/05/04 08:53:40;;;;;;;9.98;5.57;;;15.00;92.20;;;;;;4942272;28;19991;-88
2023/05/04 08:56:08;;;;;;;10.30;5.53;;;15.00;92.80;;;;;;4928988;28;20061;-88
2023/05/04 08:58:47;;;;;;;9.80;6.45;;;15.00;93.30;;;;;;4942259;28;20395;-86
2023/05/04 09:01:15;;;;;;;10.90;6.18;;;15.10;92.60;;;;;;4962181;28;20061;-87
2023/05/04 09:03:42;;;;;;;9.50;5.43;;;15.10;91.70;;;;;;4941961;28;20058;-89
2023/05/04 09:06:08;;;;;;;12.80;6.07;;;15.20;91.40;;;;;;4943976;28;20051;-87
2023/05/04 09:08:34;;;;;;;12.13;6.20;;;15.10;92.10;;;;;;4960065;28;20058;-88
2023/05/04 09:11:03;;;;;;;10.52;6.13;;;15.10;92.40;;;;;;4943967;28;20098;-87
2023/05/04 09:13:30;;;;;;;11.50;5.65;;;15.30;91.80;;;;;;4958517;28;20059;-87
2023/05/04 09:15:57;;;;;;;8.10;5.47;;;15.50;90.30;;;;;;4957820;28;20137;-90
2023/05/04 09:18:34;;;;;;;11.35;5.80;;;15.60;90.40;;;;;;4925800;28;20101;-88
2023/05/04 09:21:02;;;;;;;10.95;5.93;;;15.80;90.90;;;;;;4958016;28;20074;-87
2023/05/04 09:23:28;;;;;;;12.63;6.18;;;15.60;89.90;;;;;;4957540;28;20398;-87
2023/05/04 09:25:55;;;;;;;11.38;5.50;;;16.20;90.10;;;;;;4957802;28;20043;-89
2023/05/04 09:28:37;;;;;;;11.98;5.78;;;16.30;87.80;;;;;;4956884;28;20423;-88
2023/05/04 09:31:03;;;;;;;10.15;5.40;;;16.40;88.50;;;;;;4974736;28;20047;-88
2023/05/04 09:33:29;;;;;;;10.80;5.70;;;16.60;84.70;;;;;;4957670;28;20117;-88
2023/05/04 09:36:14;;;;;;;11.38;5.13;;;16.80;84.30;;;;;;4957673;28;20101;-88
2023/05/04 09:38:40;;;;;;;10.25;5.40;;;16.90;86.30;;;;;;4961166;28;20047;-88
2023/05/04 09:41:06;;;;;;;10.45;5.72;;;17.10;81.40;;;;;;4930136;28;20043;-88
2023/05/04 09:43:42;;;;;;;11.10;4.97;;;17.10;82.70;;;;;;4961573;28;20047;-88
2023/05/04 09:46:18;;;;;;;12.68;5.60;;;17.00;81.60;;;;;;4945076;28;20055;-86
2023/05/04 09:48:55;;;;;;;9.48;5.28;;;17.20;79.20;;;;;;4931288;28;20051;-87
2023/05/04 09:51:23;;;;;;;9.85;5.40;;;17.50;78.10;;;;;;4944698;28;20426;-88
2023/05/04 09:53:50;;;;;;;10.27;5.18;;;17.60;82.10;;;;;;4929741;28;20054;-87
2023/05/04 09:56:40;;;;;;;10.80;5.20;;;17.70;75.50;;;;;;4960555;28;20109;-88
2023/05/04 09:59:08;;;;;;;9.48;4.40;;;17.80;74.90;;;;;;4960603;28;20054;-89
2023/05/04 10:01:35;;;;;;;11.57;4.82;;;17.80;74.00;;;;;;4944359;28;20540;-87
2023/05/04 10:04:02;;;;;;;10.10;4.82;;;17.70;75.30;;;;;;4944445;28;20054;-87
2023/05/04 10:06:31;;;;;;;10.68;4.85;;;17.80;75.70;;;;;;4960450;28;20057;-89
2023/05/04 10:09:00;;;;;;;10.30;5.10;;;17.90;73.40;;;;;;4944626;28;20065;-88
2023/05/04 10:11:29;;;;;;;11.05;5.38;;;17.90;75.90;;;;;;4944208;28;20061;-88
2023/05/04 10:13:58;;;;;;;8.98;5.20;;;18.30;75.20;;;;;;4940831;29;20465;-87
2023/05/04 10:16:52;;;;;;;11.13;5.10;;;18.30;70.50;;;;;;4925600;29;20039;-87
2023/05/04 10:19:39;;;;;;;12.00;4.70;;;18.40;71.20;;;;;;4940775;29;20399;-86
2023/05/04 10:22:08;;;;;;;10.15;5.20;;;18.40;70.20;;;;;;4957087;29;20055;-85
2023/05/04 10:25:13;;;;;;;9.38;4.85;;;18.60;71.70;;;;;;4941036;29;20186;-87
2023/05/04 10:28:19;;;;;;;7.18;3.80;;;18.90;71.40;;;;;;4927717;29;20059;-87
2023/05/04 10:30:45;;;;;;;9.05;4.03;;;18.90;66.60;;;;;;4941070;29;20051;-89
2023/05/04 10:33:11;;;;;;;9.73;4.65;;;18.80;62.90;;;;;;4924885;29;20054;-90
2023/05/04 10:35:37;;;;;;;11.32;4.78;;;18.60;66.10;;;;;;4925674;29;20047;-89
2023/05/04 10:38:03;;;;;;;9.23;4.72;;;18.70;68.80;;;;;;4925646;29;20043;-90
2023/05/04 10:40:39;;;;;;;9.25;4.90;;;18.70;65.00;;;;;;4925797;29;20051;-88
2023/05/04 10:43:12;;;;;;;8.95;4.90;;;18.70;67.60;;;;;;4938547;28;20062;-90
2023/05/04 10:45:42;;;;;;;9.80;4.70;;;18.60;65.60;;;;;;4945646;28;20082;-90
2023/05/04 10:48:08;;;;;;;8.57;4.55;;;18.70;68.20;;;;;;4959334;28;20046;-90
2023/05/04 10:50:45;;;;;;;8.63;4.50;;;18.80;65.40;;;;;;4960066;28;20502;-89
2023/05/04 10:53:13;;;;;;;8.27;4.57;;;19.00;66.70;;;;;;4962088;28;20047;-85
2023/05/04 10:55:47;;;;;;;7.22;4.05;;;19.10;65.80;;;;;;4960690;28;20109;-88
2023/05/04 10:58:26;;;;;;;9.05;4.00;;;19.20;59.10;;;;;;4949666;28;20058;-90
2023/05/04 11:00:52;;;;;;;9.85;4.30;;;19.10;62.40;;;;;;4947953;28;20050;-87
2023/05/04 11:03:28;;;;;;;8.77;4.10;;;19.10;63.00;;;;;;4947638;28;20050;-88
2023/05/04 11:05:54;;;;;;;9.88;4.18;;;19.20;59.80;;;;;;4951037;28;20407;-88
2023/05/04 11:08:24;;;;;;;10.27;4.85;;;19.30;61.70;;;;;;4945155;28;20407;-86
2023/05/04 11:11:08;;;;;;;8.38;4.00;;;19.40;60.30;;;;;;4960404;28;20499;-88
2023/05/04 11:13:40;;;;;;;8.48;3.90;;;19.50;59.50;;;;;;4959959;28;20058;-87
2023/05/04 11:16:06;;;;;;;8.60;3.88;;;19.60;59.40;;;;;;4959893;28;20053;-86
2023/05/04 11:18:33;;;;;;;7.28;3.50;;;19.80;58.90;;;;;;4943489;28;20042;-87
2023/05/04 11:21:00;;;;;;;7.80;3.70;;;20.10;57.60;;;;;;4943279;28;20078;-85
2023/05/04 11:23:27;;;;;;;7.35;3.67;;;20.10;54.10;;;;;;4960388;28;20380;-88
2023/05/04 11:25:53;;;;;;;7.07;3.85;;;20.10;55.60;;;;;;4961502;28;20051;-87
2023/05/04 11:28:30;;;;;;;8.45;3.80;;;20.00;54.30;;;;;;4959599;28;20151;-88
2023/05/04 11:30:56;;;;;;;8.13;3.95;;;19.90;55.70;;;;;;4960705;28;20526;-88
2023/05/04 11:33:22;;;;;;;8.43;3.63;;;19.80;53.90;;;;;;4943160;28;20047;-89
2023/05/04 11:35:49;;;;;;;7.45;3.60;;;19.70;52.50;;;;;;4959226;28;20542;-87
2023/05/04 11:38:18;;;;;;;8.02;3.33;;;19.50;53.60;;;;;;4959512;28;20088;-86
2023/05/04 11:40:47;;;;;;;8.95;3.95;;;19.50;53.80;;;;;;4958691;28;20047;-87
2023/05/04 11:43:13;;;;;;;7.78;3.47;;;19.40;54.10;;;;;;4942634;28;20096;-86
2023/05/04 11:45:40;;;;;;;7.53;3.60;;;19.50;56.30;;;;;;4942556;28;20046;-85
2023/05/04 11:48:08;;;;;;;7.68;3.92;;;19.60;53.80;;;;;;4942591;28;20102;-87
2023/05/04 11:50:34;;;;;;;7.07;3.58;;;19.80;53.90;;;;;;4942543;28;20057;-88
2023/05/04 11:53:05;;;;;;;8.07;3.85;;;19.80;53.40;;;;;;4958711;28;20043;-88
2023/05/04 11:55:31;;;;;;;7.97;4.25;;;19.90;55.10;;;;;;4958292;28;20057;-88
2023/05/04 11:57:58;;;;;;;7.90;3.90;;;20.00;53.70;;;;;;4942327;28;20047;-89
2023/05/04 12:00:48;;;;;;;8.38;3.90;;;19.90;52.80;;;;;;4957741;28;20055;-86
2023/05/04 12:03:33;;;;;;;8.43;4.13;;;20.10;54.60;;;;;;4958477;28;20085;-87
2023/05/04 12:06:01;;;;;;;7.72;4.20;;;20.10;53.70;;;;;;4958534;28;20079;-87
2023/05/04 12:08:35;;;;;;;8.10;4.20;;;20.20;53.60;;;;;;4958058;28;20062;-87
2023/05/04 12:11:28;;;;;;;9.35;4.38;;;20.20;55.10;;;;;;4957947;28;20054;-89
2023/05/04 12:14:16;;;;;;;7.07;3.92;;;20.40;53.20;;;;;;4930403;29;20138;-88
2023/05/04 12:16:53;;;;;;;8.73;4.40;;;20.40;55.20;;;;;;4908634;29;20051;-88
2023/05/04 12:19:19;;;;;;;10.35;3.95;;;20.40;54.90;;;;;;4939448;29;20135;-88
2023/05/04 12:21:52;;;;;;;8.57;4.20;;;20.40;51.70;;;;;;4939014;29;20500;-89
2023/05/04 12:24:21;;;;;;;8.23;4.10;;;20.40;52.40;;;;;;4939353;29;20058;-89
2023/05/04 12:26:47;;;;;;;7.88;3.30;;;20.30;52.80;;;;;;4923114;29;20054;-89
2023/05/04 12:29:13;;;;;;;7.80;3.70;;;20.30;52.60;;;;;;4939030;29;20069;-88
2023/05/04 12:31:42;;;;;;;7.65;3.47;;;20.20;51.60;;;;;;4920934;29;20491;-87
2023/05/04 12:34:07;;;;;;;7.55;4.18;;;20.20;51.80;;;;;;4920754;29;20047;-88
2023/05/04 12:36:33;;;;;;;9.20;4.05;;;20.20;52.60;;;;;;4938659;29;20050;-90
2023/05/04 12:38:59;;;;;;;7.28;4.00;;;20.40;53.90;;;;;;4923186;29;20053;-90
2023/05/04 12:41:25;;;;;;;9.32;3.97;;;20.60;51.40;;;;;;4923153;29;20131;-88
2023/05/04 12:43:51;;;;;;;6.10;3.58;;;20.30;52.30;;;;;;4957535;28;20094;-88